createdAt,value
2024-01-28T00:00:54.262Z,3.80
2024-01-28T00:03:22.912Z,3.80
2024-01-28T00:05:55.060Z,3.80
2024-01-28T00:08:25.201Z,3.80
2024-01-28T00:10:54.261Z,3.80
2024-01-28T00:13:24.948Z,3.80
2024-01-28T00:15:56.466Z,3.80
2024-01-28T00:18:26.698Z,3.80
2024-01-28T00:20:55.641Z,3.70
2024-01-28T00:23:22.267Z,3.80
2024-01-28T00:25:48.866Z,3.70
2024-01-28T00:28:18.675Z,3.70
2024-01-28T00:30:45.358Z,3.70
2024-01-28T00:33:12.556Z,3.70
2024-01-28T00:35:39.249Z,3.70
2024-01-28T00:38:05.968Z,3.70
2024-01-28T00:40:35.024Z,3.70
2024-01-28T00:43:03.529Z,3.70
2024-01-28T00:45:36.973Z,3.60
2024-01-28T00:48:04.032Z,3.60
2024-01-28T00:50:33.205Z,3.60
2024-01-28T00:53:01.129Z,3.60
2024-01-28T00:55:32.205Z,3.60
2024-01-28T00:58:00.580Z,3.50
2024-01-28T01:00:37.656Z,3.50
2024-01-28T01:03:04.951Z,3.50
2024-01-28T01:05:35.190Z,3.50
2024-01-28T01:08:09.730Z,3.50
2024-01-28T01:10:38.275Z,3.50
2024-01-28T01:13:12.489Z,3.40
2024-01-28T01:15:39.189Z,3.40
2024-01-28T01:18:08.847Z,3.40
2024-01-28T01:20:37.945Z,3.40
2024-01-28T01:23:06.035Z,3.40
2024-01-28T01:25:32.701Z,3.40
2024-01-28T01:27:59.822Z,3.30
2024-01-28T01:30:35.935Z,3.30
2024-01-28T01:33:04.101Z,3.30
2024-01-28T01:35:30.838Z,3.30
2024-01-28T01:37:59.754Z,3.30
2024-01-28T01:40:26.400Z,3.30
2024-01-28T01:42:55.563Z,3.30
2024-01-28T01:45:22.612Z,3.30
2024-01-28T01:47:54.897Z,3.20
2024-01-28T01:50:25.322Z,3.20
2024-01-28T01:52:55.407Z,3.20
2024-01-28T01:55:22.296Z,3.20
2024-01-28T01:57:54.484Z,3.20
2024-01-28T02:00:23.986Z,3.20
2024-01-28T02:02:53.341Z,3.20
2024-01-28T02:05:22.443Z,3.20
2024-01-28T02:07:51.873Z,3.20
2024-01-28T02:10:18.553Z,3.20
2024-01-28T02:12:46.290Z,3.10
2024-01-28T02:15:21.001Z,3.10
2024-01-28T02:17:56.831Z,3.10
2024-01-28T02:20:23.942Z,3.10
2024-01-28T02:22:50.550Z,3.10
2024-01-28T02:25:17.354Z,3.10
2024-01-28T02:27:46.555Z,3.10
2024-01-28T02:30:14.612Z,3.10
2024-01-28T02:32:52.393Z,3.10
2024-01-28T02:35:22.206Z,3.00
2024-01-28T02:37:49.053Z,3.00
2024-01-28T02:40:15.803Z,3.00
2024-01-28T02:42:42.598Z,3.00
2024-01-28T02:45:11.534Z,3.00
2024-01-28T02:47:39.307Z,3.00
2024-01-28T02:50:06.506Z,3.00
2024-01-28T02:52:38.584Z,3.00
2024-01-28T02:55:13.018Z,3.00
2024-01-28T02:57:39.810Z,3.00
2024-01-28T03:00:07.523Z,3.00
2024-01-28T03:02:40.637Z,3.00
2024-01-28T03:05:12.067Z,3.00
2024-01-28T03:07:38.925Z,2.90
2024-01-28T03:10:06.649Z,2.90
2024-01-28T03:12:33.387Z,2.90
2024-01-28T03:15:01.678Z,2.90
2024-01-28T03:17:33.449Z,2.90
2024-01-28T03:20:00.171Z,2.90
2024-01-28T03:22:26.916Z,2.90
2024-01-28T03:24:58.713Z,2.90
2024-01-28T03:27:25.412Z,2.90
2024-01-28T03:29:54.822Z,2.90
2024-01-28T03:32:23.870Z,2.90
2024-01-28T03:34:50.866Z,2.80
2024-01-28T03:37:17.688Z,2.90
2024-01-28T03:39:44.688Z,2.80
2024-01-28T03:42:11.890Z,2.80
2024-01-28T03:44:38.781Z,2.80
2024-01-28T03:47:05.428Z,2.80
2024-01-28T03:49:32.086Z,2.80
2024-01-28T03:52:01.735Z,2.70
2024-01-28T03:54:32.949Z,2.70
2024-01-28T03:56:59.594Z,2.80
2024-01-28T03:59:27.407Z,2.70
2024-01-28T04:01:59.328Z,2.70
2024-01-28T04:04:26.027Z,2.60
2024-01-28T04:06:53.143Z,2.70
2024-01-28T04:09:19.838Z,2.60
2024-01-28T04:11:49.329Z,2.60
2024-01-28T04:14:18.186Z,2.60
2024-01-28T04:16:47.494Z,2.60
2024-01-28T04:19:14.266Z,2.60
2024-01-28T04:21:43.199Z,2.60
2024-01-28T04:24:11.259Z,2.50
2024-01-28T04:26:38.504Z,2.50
2024-01-28T04:29:11.952Z,2.50
2024-01-28T04:31:44.695Z,2.50
2024-01-28T04:34:11.878Z,2.50
2024-01-28T04:36:46.223Z,2.50
2024-01-28T04:39:16.383Z,2.50
2024-01-28T04:41:43.076Z,2.50
2024-01-28T04:44:09.782Z,2.40
2024-01-28T04:46:37.537Z,2.40
2024-01-28T04:49:07.411Z,2.40
2024-01-28T04:51:38.856Z,2.40
2024-01-28T04:54:13.442Z,2.40
2024-01-28T04:56:40.051Z,2.40
2024-01-28T04:59:12.970Z,2.40
2024-01-28T05:01:42.288Z,2.30
2024-01-28T05:04:16.493Z,2.30
2024-01-28T05:06:46.543Z,2.30
2024-01-28T05:09:16.321Z,2.30
2024-01-28T05:11:42.996Z,2.30
2024-01-28T05:14:12.070Z,2.30
2024-01-28T05:16:38.759Z,2.30
2024-01-28T05:19:08.012Z,2.30
2024-01-28T05:21:37.913Z,2.30
2024-01-28T05:24:07.413Z,2.30
2024-01-28T05:26:37.468Z,2.30
2024-01-28T05:29:06.418Z,2.30
2024-01-28T05:31:34.044Z,2.20
2024-01-28T05:34:03.370Z,2.20
2024-01-28T05:36:30.574Z,2.20
2024-01-28T05:38:58.709Z,2.20
2024-01-28T05:41:30.296Z,2.20
2024-01-28T05:44:01.686Z,2.20
2024-01-28T05:46:30.631Z,2.20
2024-01-28T05:48:59.571Z,2.20
2024-01-28T05:51:28.126Z,2.20
2024-01-28T05:53:58.509Z,2.20
2024-01-28T05:56:27.561Z,2.20
2024-01-28T05:58:54.170Z,2.10
2024-01-28T06:01:21.879Z,2.40
2024-01-28T06:03:51.184Z,2.10
2024-01-28T06:06:23.189Z,2.10
2024-01-28T06:08:49.832Z,2.10
2024-01-28T06:11:16.436Z,2.20
2024-01-28T06:13:43.087Z,2.10
2024-01-28T06:16:10.020Z,2.10
2024-01-28T06:18:44.458Z,2.10
2024-01-28T06:21:14.493Z,2.20
2024-01-28T06:23:46.398Z,2.10
2024-01-28T06:26:22.670Z,2.10
2024-01-28T06:28:50.178Z,2.00
2024-01-28T06:31:19.149Z,2.00
2024-01-28T06:33:45.827Z,2.00
2024-01-28T06:36:24.019Z,2.10
2024-01-28T06:38:50.785Z,2.00
2024-01-28T06:41:17.885Z,2.00
2024-01-28T06:43:47.014Z,2.00
2024-01-28T06:46:20.114Z,2.00
2024-01-28T06:48:49.698Z,2.00
2024-01-28T06:51:16.421Z,2.00
2024-01-28T06:53:49.794Z,2.00
2024-01-28T06:56:27.598Z,2.00
2024-01-28T06:58:58.994Z,2.00
2024-01-28T07:01:28.135Z,2.00
2024-01-28T07:03:57.868Z,1.90
2024-01-28T07:06:26.767Z,1.90
2024-01-28T07:08:55.750Z,1.90
2024-01-28T07:11:26.365Z,1.90
2024-01-28T07:13:54.890Z,2.00
2024-01-28T07:16:27.020Z,2.00
2024-01-28T07:18:53.767Z,2.00
2024-01-28T07:21:23.442Z,2.00
2024-01-28T07:23:53.012Z,2.00
2024-01-28T07:26:23.087Z,2.00
2024-01-28T07:28:52.969Z,2.00
2024-01-28T07:31:23.081Z,2.00
2024-01-28T07:33:53.586Z,2.00
2024-01-28T07:36:22.825Z,2.10
2024-01-28T07:38:51.667Z,2.10
2024-01-28T07:41:18.281Z,2.10
2024-01-28T07:43:47.256Z,2.10
2024-01-28T07:46:16.826Z,2.10
2024-01-28T07:48:51.135Z,2.40
2024-01-28T07:51:17.882Z,2.20
2024-01-28T07:53:47.660Z,2.30
2024-01-28T07:56:17.263Z,2.30
2024-01-28T07:58:43.942Z,2.40
2024-01-28T08:01:10.702Z,2.40
2024-01-28T08:03:37.567Z,2.40
2024-01-28T08:06:05.575Z,2.50
2024-01-28T08:08:34.072Z,2.50
2024-01-28T08:11:03.990Z,2.50
2024-01-28T08:13:30.641Z,2.60
2024-01-28T08:16:02.720Z,2.60
2024-01-28T08:18:29.553Z,2.60
2024-01-28T08:20:57.172Z,2.70
2024-01-28T08:23:23.822Z,2.70
2024-01-28T08:25:53.060Z,2.80
2024-01-28T08:28:19.873Z,2.80
2024-01-28T08:30:47.202Z,2.80
2024-01-28T08:33:14.110Z,2.90
2024-01-28T08:35:42.528Z,2.90
2024-01-28T08:38:09.652Z,2.90
2024-01-28T08:40:36.251Z,3.00
2024-01-28T08:43:05.428Z,3.00
2024-01-28T08:45:37.183Z,3.00
2024-01-28T08:48:07.082Z,3.10
2024-01-28T08:50:33.848Z,3.10
2024-01-28T08:53:00.892Z,3.20
2024-01-28T08:55:27.570Z,3.20
2024-01-28T08:57:54.299Z,3.30
2024-01-28T09:00:21.354Z,3.30
2024-01-28T09:02:48.193Z,3.30
2024-01-28T09:05:15.035Z,3.40
2024-01-28T09:07:42.911Z,3.40
2024-01-28T09:10:10.075Z,3.50
2024-01-28T09:12:36.818Z,3.50
2024-01-28T09:15:03.748Z,3.50
2024-01-28T09:17:30.439Z,3.60
2024-01-28T09:19:57.574Z,3.60
2024-01-28T09:22:26.580Z,3.70
2024-01-28T09:24:53.218Z,3.80
2024-01-28T09:27:23.879Z,3.80
2024-01-28T09:29:51.464Z,3.90
2024-01-28T09:32:21.176Z,4.00
2024-01-28T09:34:48.346Z,4.00
2024-01-28T09:37:15.160Z,4.10
2024-01-28T09:39:41.842Z,4.10
2024-01-28T09:42:29.789Z,4.20
2024-01-28T09:44:59.314Z,4.20
2024-01-28T09:47:26.897Z,4.30
2024-01-28T09:49:55.826Z,4.30
2024-01-28T09:52:22.640Z,4.40
2024-01-28T09:54:49.365Z,4.40
2024-01-28T09:57:16.639Z,4.50
2024-01-28T09:59:44.822Z,4.50
2024-01-28T10:02:13.206Z,4.50
2024-01-28T10:04:41.415Z,4.60
2024-01-28T10:07:10.689Z,4.70
2024-01-28T10:09:38.282Z,4.70
2024-01-28T10:12:05.478Z,4.80
2024-01-28T10:14:32.106Z,4.80
2024-01-28T10:16:59.000Z,4.90
2024-01-28T10:19:26.493Z,5.00
2024-01-28T10:21:53.424Z,5.00
2024-01-28T10:24:21.757Z,5.10
2024-01-28T10:26:48.457Z,5.10
2024-01-28T10:29:18.527Z,5.20
2024-01-28T10:31:45.346Z,5.20
2024-01-28T10:34:12.276Z,5.30
2024-01-28T10:36:41.417Z,5.30
2024-01-28T10:39:14.781Z,5.40
2024-01-28T10:41:45.172Z,5.40
2024-01-28T10:44:13.765Z,5.50
2024-01-28T10:46:42.697Z,5.60
2024-01-28T10:49:13.795Z,5.60
2024-01-28T10:51:41.284Z,5.70
2024-01-28T10:54:09.343Z,5.70
2024-01-28T10:56:41.794Z,5.80
2024-01-28T10:59:11.045Z,5.90
2024-01-28T11:01:38.380Z,6.00
2024-01-28T11:04:06.673Z,6.00
2024-01-28T11:06:34.132Z,6.10
2024-01-28T11:09:01.802Z,6.10
2024-01-28T11:11:28.647Z,6.20
2024-01-28T11:13:56.970Z,6.20
2024-01-28T11:16:23.663Z,6.30
2024-01-28T11:19:05.587Z,6.40
2024-01-28T11:21:34.771Z,6.40
2024-01-28T11:24:07.586Z,6.50
2024-01-28T11:26:42.218Z,6.50
2024-01-28T11:29:13.509Z,6.60
2024-01-28T11:31:41.783Z,6.60
2024-01-28T11:34:21.755Z,6.70
2024-01-28T11:36:52.628Z,6.80
2024-01-28T11:39:43.742Z,6.80
2024-01-28T11:42:10.800Z,6.90
2024-01-28T11:44:41.626Z,6.90
2024-01-28T11:47:18.074Z,7.00
2024-01-28T11:49:45.109Z,7.00
2024-01-28T11:52:12.600Z,7.10
2024-01-28T11:54:39.426Z,7.10
2024-01-28T11:57:06.994Z,7.20
2024-01-28T11:59:35.066Z,7.20
2024-01-28T12:02:02.801Z,7.30
2024-01-28T12:04:29.626Z,7.40
2024-01-28T12:06:56.562Z,7.40
2024-01-28T12:09:23.465Z,7.50
2024-01-28T12:11:51.600Z,7.60
2024-01-28T12:14:21.290Z,7.60
2024-01-28T12:16:48.363Z,7.70
2024-01-28T12:19:15.559Z,7.80
2024-01-28T12:21:43.600Z,7.80
2024-01-28T12:24:10.994Z,7.90
2024-01-28T12:26:37.708Z,7.90
2024-01-28T12:29:04.415Z,8.00
2024-01-28T12:31:34.310Z,8.10
2024-01-28T12:34:01.286Z,8.10
2024-01-28T12:36:28.056Z,8.20
2024-01-28T12:38:54.931Z,8.30
2024-01-28T12:41:23.689Z,8.30
2024-01-28T12:43:54.927Z,8.40
2024-01-28T12:46:21.666Z,8.40
2024-01-28T12:48:48.453Z,8.50
2024-01-28T12:51:15.696Z,8.60
2024-01-28T12:53:42.606Z,8.60
2024-01-28T12:56:09.303Z,8.60
2024-01-28T12:58:36.100Z,8.70
2024-01-28T13:01:05.094Z,8.80
2024-01-28T13:03:32.117Z,8.80
2024-01-28T13:05:58.853Z,8.80
2024-01-28T13:08:25.599Z,8.90
2024-01-28T13:10:52.308Z,8.90
2024-01-28T13:13:20.253Z,9.00
2024-01-28T13:15:47.467Z,9.00
2024-01-28T13:18:26.025Z,9.10
2024-01-28T13:21:00.236Z,9.10
2024-01-28T13:23:29.410Z,9.20
2024-01-28T13:25:56.173Z,9.30
2024-01-28T13:28:22.922Z,9.30
2024-01-28T13:30:49.897Z,9.30
2024-01-28T13:33:16.724Z,9.40
2024-01-28T13:35:45.724Z,9.40
2024-01-28T13:38:14.812Z,9.50
2024-01-28T13:40:43.238Z,9.50
2024-01-28T13:43:12.348Z,9.60
2024-01-28T13:45:39.055Z,9.60
2024-01-28T13:48:07.284Z,9.70
2024-01-28T13:50:34.092Z,9.70
2024-01-28T13:53:00.802Z,9.80
2024-01-28T13:55:27.458Z,9.80
2024-01-28T13:57:54.289Z,9.80
2024-01-28T14:00:21.087Z,9.90
2024-01-28T14:02:47.766Z,9.90
2024-01-28T14:05:14.683Z,10.00
2024-01-28T14:07:41.572Z,10.00
2024-01-28T14:10:09.154Z,10.10
2024-01-28T14:12:36.020Z,10.10
2024-01-28T14:15:02.705Z,10.10
2024-01-28T14:17:29.659Z,10.10
2024-01-28T14:19:56.376Z,10.20
2024-01-28T14:22:23.094Z,10.20
2024-01-28T14:24:49.792Z,10.20
2024-01-28T14:27:16.538Z,10.30
2024-01-28T14:29:43.229Z,10.30
2024-01-28T14:32:12.439Z,10.30
2024-01-28T14:34:39.992Z,10.30
2024-01-28T14:37:07.347Z,10.30
2024-01-28T14:39:34.062Z,10.30
2024-01-28T14:42:04.110Z,10.40
2024-01-28T14:44:30.773Z,10.40
2024-01-28T14:47:01.196Z,10.40
2024-01-28T14:49:30.422Z,10.40
2024-01-28T14:51:57.174Z,10.40
2024-01-28T14:54:23.953Z,10.50
2024-01-28T14:56:52.015Z,10.40
2024-01-28T14:59:18.694Z,10.50
2024-01-28T15:01:45.358Z,10.40
2024-01-28T15:04:12.194Z,10.50
2024-01-28T15:06:39.548Z,10.50
2024-01-28T15:09:08.928Z,10.50
2024-01-28T15:11:37.122Z,10.40
2024-01-28T15:14:04.020Z,10.40
2024-01-28T15:16:30.822Z,10.40
2024-01-28T15:18:57.698Z,10.30
2024-01-28T15:21:27.049Z,10.30
2024-01-28T15:23:53.817Z,10.30
2024-01-28T15:26:21.244Z,10.20
2024-01-28T15:28:47.902Z,10.20
2024-01-28T15:31:14.821Z,10.10
2024-01-28T15:33:41.642Z,10.10
2024-01-28T15:36:12.536Z,10.00
2024-01-28T15:38:45.014Z,9.90
2024-01-28T15:41:12.259Z,9.80
2024-01-28T15:43:38.951Z,9.70
2024-01-28T15:46:08.712Z,9.70
2024-01-28T15:48:36.935Z,9.60
2024-01-28T15:51:04.933Z,9.50
2024-01-28T15:53:31.947Z,9.40
2024-01-28T15:55:58.902Z,9.30
2024-01-28T15:58:26.396Z,9.20
2024-01-28T16:00:55.030Z,9.10
2024-01-28T16:03:22.159Z,8.90
2024-01-28T16:05:48.844Z,8.80
2024-01-28T16:08:15.847Z,8.90
2024-01-28T16:10:42.516Z,8.60
2024-01-28T16:13:09.346Z,8.50
2024-01-28T16:15:38.284Z,8.40
2024-01-28T16:18:06.658Z,8.30
2024-01-28T16:20:33.492Z,8.20
2024-01-28T16:23:00.895Z,8.00
2024-01-28T16:25:31.835Z,7.90
2024-01-28T16:27:59.588Z,7.80
2024-01-28T16:30:29.229Z,7.70
2024-01-28T16:32:56.495Z,7.60
2024-01-28T16:35:24.230Z,7.50
2024-01-28T16:37:53.486Z,7.40
2024-01-28T16:40:20.380Z,7.30
2024-01-28T16:42:48.002Z,7.30
2024-01-28T16:45:18.167Z,7.20
2024-01-28T16:47:46.211Z,7.10
2024-01-28T16:50:14.003Z,7.10
2024-01-28T16:52:41.419Z,7.00
2024-01-28T16:55:08.945Z,6.90
2024-01-28T16:57:36.239Z,6.90
2024-01-28T17:00:03.564Z,6.80
2024-01-28T17:02:30.288Z,6.80
2024-01-28T17:04:58.046Z,6.70
2024-01-28T17:07:25.643Z,6.60
2024-01-28T17:09:52.356Z,6.60
2024-01-28T17:12:19.050Z,6.60
2024-01-28T17:14:45.698Z,6.60
2024-01-28T17:17:15.245Z,6.50
2024-01-28T17:19:41.999Z,6.50
2024-01-28T17:22:09.754Z,6.50
2024-01-28T17:24:38.694Z,6.50
2024-01-28T17:27:05.768Z,6.50
2024-01-28T17:29:33.342Z,6.40
2024-01-28T17:32:02.382Z,6.40
2024-01-28T17:34:29.201Z,6.40
2024-01-28T17:36:58.003Z,6.40
2024-01-28T17:39:29.340Z,6.40
2024-01-28T17:42:00.830Z,6.40
2024-01-28T17:44:28.538Z,6.40
2024-01-28T17:46:57.690Z,6.40
2024-01-28T17:49:24.419Z,6.30
2024-01-28T17:52:00.382Z,6.30
2024-01-28T17:54:29.868Z,6.30
2024-01-28T17:56:56.543Z,6.30
2024-01-28T17:59:23.223Z,6.30
2024-01-28T18:01:49.943Z,6.30
2024-01-28T18:04:18.634Z,6.30
2024-01-28T18:06:49.087Z,6.30
2024-01-28T18:09:18.880Z,6.30
2024-01-28T18:11:54.777Z,6.30
2024-01-28T18:14:25.908Z,6.30
2024-01-28T18:16:55.866Z,6.30
2024-01-28T18:19:24.661Z,6.40
2024-01-28T18:21:51.510Z,6.40
2024-01-28T18:24:19.282Z,6.40
2024-01-28T18:26:46.778Z,6.40
2024-01-28T18:29:15.753Z,6.40
2024-01-28T18:31:44.358Z,6.40
2024-01-28T18:34:12.417Z,6.40
2024-01-28T18:36:41.352Z,6.40
2024-01-28T18:39:10.526Z,6.40
2024-01-28T18:41:41.122Z,6.40
2024-01-28T18:44:09.181Z,6.40
2024-01-28T18:46:35.877Z,6.40
2024-01-28T18:49:02.664Z,6.40
2024-01-28T18:51:32.201Z,6.40
2024-01-28T18:54:00.167Z,6.40
2024-01-28T18:56:26.944Z,6.40
2024-01-28T18:58:53.641Z,6.30
2024-01-28T19:01:27.478Z,6.30
2024-01-28T19:03:54.196Z,6.40
2024-01-28T19:06:24.023Z,6.40
2024-01-28T19:08:50.957Z,6.30
2024-01-28T19:11:21.998Z,6.40
2024-01-28T19:13:49.151Z,6.30
2024-01-28T19:16:17.608Z,6.30
2024-01-28T19:18:49.278Z,6.40
2024-01-28T19:21:16.090Z,6.40
2024-01-28T19:23:43.848Z,6.40
2024-01-28T19:26:12.414Z,6.40
2024-01-28T19:28:39.202Z,6.40
2024-01-28T19:31:06.012Z,6.40
2024-01-28T19:33:34.916Z,6.40
2024-01-28T19:36:06.202Z,6.50
2024-01-28T19:38:35.890Z,6.50
2024-01-28T19:41:06.014Z,6.50
2024-01-28T19:43:35.327Z,6.50
2024-01-28T19:46:04.696Z,6.50
2024-01-28T19:48:31.577Z,6.60
2024-01-28T19:51:00.610Z,6.60
2024-01-28T19:53:31.860Z,6.60
2024-01-28T19:56:03.905Z,6.60
2024-01-28T19:58:30.548Z,6.70
2024-01-28T20:00:59.945Z,6.70
2024-01-28T20:03:30.236Z,6.70
2024-01-28T20:06:02.265Z,6.80
2024-01-28T20:08:30.938Z,6.70
2024-01-28T20:10:57.843Z,6.80
2024-01-28T20:13:24.617Z,6.80
2024-01-28T20:15:52.195Z,6.90
2024-01-28T20:20:51.684Z,6.90
2024-01-28T20:23:20.872Z,7.00
2024-01-28T20:25:53.640Z,7.00
2024-01-28T20:28:27.969Z,7.00
2024-01-28T20:30:54.843Z,7.00
2024-01-28T20:33:22.185Z,7.00
2024-01-28T20:35:51.620Z,7.10
2024-01-28T20:38:19.396Z,7.10
2024-01-28T20:40:46.441Z,7.10
2024-01-28T20:43:19.396Z,7.10
2024-01-28T20:45:46.135Z,7.10
2024-01-28T20:48:12.914Z,7.10
2024-01-28T20:50:39.577Z,7.00
2024-01-28T20:53:10.167Z,7.10
2024-01-28T20:55:41.980Z,7.00
2024-01-28T20:58:09.366Z,7.00
2024-01-28T21:00:36.007Z,7.00
2024-01-28T21:03:03.278Z,7.00
2024-01-28T21:05:35.711Z,7.00
2024-01-28T21:08:02.377Z,6.90
2024-01-28T21:10:29.025Z,6.90
2024-01-28T21:12:58.094Z,6.90
2024-01-28T21:15:30.925Z,6.80
2024-01-28T21:18:00.858Z,6.90
2024-01-28T21:20:30.924Z,6.80
2024-01-28T21:22:59.915Z,6.80
2024-01-28T21:25:27.963Z,6.70
2024-01-28T21:27:54.655Z,6.70
2024-01-28T21:30:24.204Z,6.60
2024-01-28T21:32:51.108Z,6.60
2024-01-28T21:35:19.585Z,6.60
2024-01-28T21:37:50.736Z,6.50
2024-01-28T21:40:20.112Z,6.50
2024-01-28T21:42:46.998Z,6.50
2024-01-28T21:45:14.771Z,6.40
2024-01-28T21:47:43.119Z,6.40
2024-01-28T21:50:19.733Z,6.30
2024-01-28T21:52:52.023Z,6.30
2024-01-28T21:55:21.770Z,6.30
2024-01-28T21:57:54.527Z,6.20
2024-01-28T22:00:30.750Z,6.20
2024-01-28T22:03:05.796Z,6.10
2024-01-28T22:05:37.428Z,6.10
2024-01-28T22:08:07.324Z,6.00
2024-01-28T22:10:38.795Z,6.00
2024-01-28T22:13:05.446Z,5.90
2024-01-28T22:15:34.369Z,5.90
2024-01-28T22:18:01.205Z,5.90
2024-01-28T22:20:30.093Z,5.90
2024-01-28T22:22:56.850Z,5.80
2024-01-28T22:25:29.392Z,5.80
2024-01-28T22:27:56.073Z,5.80
2024-01-28T22:30:24.127Z,5.70
2024-01-28T22:32:51.295Z,5.70
2024-01-28T22:35:20.803Z,5.60
2024-01-28T22:37:52.895Z,5.60
2024-01-28T22:40:20.023Z,5.60
2024-01-28T22:42:50.504Z,5.60
2024-01-28T22:45:20.219Z,5.60
2024-01-28T22:47:52.364Z,5.50
2024-01-28T22:50:22.611Z,5.50
2024-01-28T22:52:56.308Z,5.50
2024-01-28T22:55:25.178Z,5.50
2024-01-28T22:57:53.167Z,5.50
2024-01-28T23:00:27.354Z,5.50
2024-01-28T23:02:57.606Z,5.40
2024-01-28T23:05:27.036Z,5.40
2024-01-28T23:07:53.854Z,5.40
2024-01-28T23:10:23.336Z,5.40
2024-01-28T23:12:53.123Z,5.40
2024-01-28T23:15:24.804Z,5.40
2024-01-28T23:17:54.044Z,5.40
2024-01-28T23:20:23.612Z,5.50
2024-01-28T23:22:56.112Z,5.50
2024-01-28T23:25:23.786Z,5.50
2024-01-28T23:27:50.515Z,5.50
2024-01-28T23:30:17.614Z,5.50
2024-01-28T23:32:47.046Z,5.50
2024-01-28T23:35:15.216Z,5.50
2024-01-28T23:37:44.247Z,5.50
2024-01-28T23:40:14.886Z,5.50
2024-01-28T23:42:45.289Z,5.50
2024-01-28T23:45:14.552Z,5.50
2024-01-28T23:47:43.733Z,5.50
2024-01-28T23:50:12.692Z,5.50
2024-01-28T23:52:40.029Z,5.50
2024-01-28T23:55:07.941Z,5.50
2024-01-28T23:57:37.256Z,5.50
